createdAt,value
2023-04-28T00:00:53.592Z,2.17
2023-04-28T00:02:56.685Z,2.30
2023-04-28T00:05:00.060Z,2.57
2023-04-28T00:07:02.896Z,2.13
2023-04-28T00:09:05.834Z,2.23
2023-04-28T00:11:10.656Z,2.57
2023-04-28T00:13:14.680Z,2.23
2023-04-28T00:15:17.444Z,2.20
2023-04-28T00:17:20.351Z,2.70
2023-04-28T00:19:23.573Z,2.43
2023-04-28T00:21:26.329Z,2.30
2023-04-28T00:23:29.072Z,2.50
2023-04-28T00:25:32.152Z,2.40
2023-04-28T00:27:34.962Z,2.10
2023-04-28T00:29:38.999Z,2.67
2023-04-28T00:31:42.200Z,2.37
2023-04-28T00:33:45.009Z,2.50
2023-04-28T00:35:47.795Z,2.40
2023-04-28T00:37:51.008Z,2.63
2023-04-28T00:39:56.633Z,2.33
2023-04-28T00:41:59.419Z,2.47
2023-04-28T00:44:02.185Z,2.13
2023-04-28T00:46:06.789Z,2.30
2023-04-28T00:48:09.564Z,2.40
2023-04-28T00:50:13.390Z,2.17
2023-04-28T00:52:16.565Z,2.20
2023-04-28T00:54:19.370Z,2.47
2023-04-28T00:56:22.276Z,2.23
2023-04-28T00:58:25.016Z,2.53
2023-04-28T01:00:31.529Z,2.77
2023-04-28T01:02:36.070Z,2.77
2023-04-28T01:04:38.964Z,2.80
2023-04-28T01:06:41.791Z,2.67
2023-04-28T01:08:45.009Z,2.40
2023-04-28T01:10:47.805Z,2.30
2023-04-28T01:12:50.701Z,2.10
2023-04-28T01:14:53.809Z,2.13
2023-04-28T01:16:56.588Z,2.20
2023-04-28T01:19:00.652Z,2.60
2023-04-28T01:21:04.351Z,2.37
2023-04-28T01:23:07.720Z,2.50
2023-04-28T01:25:11.832Z,2.43
2023-04-28T01:27:14.866Z,2.30
2023-04-28T01:29:17.672Z,2.40
2023-04-28T01:31:21.486Z,2.17
2023-04-28T01:33:24.280Z,1.87
2023-04-28T01:35:28.381Z,2.40
2023-04-28T01:37:31.590Z,2.70
2023-04-28T01:39:35.086Z,2.50
2023-04-28T01:41:39.173Z,2.30
2023-04-28T01:43:43.791Z,2.23
2023-04-28T01:45:46.941Z,2.23
2023-04-28T01:47:49.794Z,2.23
2023-04-28T01:49:52.766Z,2.40
2023-04-28T01:51:56.129Z,2.50
2023-04-28T01:53:58.853Z,2.27
2023-04-28T01:56:02.553Z,2.40
2023-04-28T01:58:07.260Z,2.20
2023-04-28T02:00:11.935Z,2.30
2023-04-28T02:02:14.676Z,2.20
2023-04-28T02:04:17.765Z,2.70
2023-04-28T02:06:21.337Z,1.90
2023-04-28T02:08:24.110Z,2.27
2023-04-28T02:10:26.903Z,2.40
2023-04-28T02:12:29.628Z,2.27
2023-04-28T02:14:34.068Z,2.40
2023-04-28T02:16:39.559Z,2.40
2023-04-28T02:18:42.346Z,2.40
2023-04-28T02:20:45.141Z,2.67
2023-04-28T02:22:48.235Z,2.50
2023-04-28T02:24:51.358Z,2.13
2023-04-28T02:26:54.087Z,2.60
2023-04-28T02:28:56.874Z,2.60
2023-04-28T02:31:08.769Z,2.60
2023-04-28T02:33:12.047Z,2.57
2023-04-28T02:35:15.108Z,2.30
2023-04-28T02:37:18.489Z,2.77
2023-04-28T02:39:25.276Z,2.43
2023-04-28T02:41:28.129Z,2.23
2023-04-28T02:43:30.974Z,2.43
2023-04-28T02:45:34.205Z,2.70
2023-04-28T02:47:38.306Z,3.07
2023-04-28T02:49:41.182Z,2.87
2023-04-28T02:51:43.944Z,2.73
2023-04-28T02:53:47.108Z,2.67
2023-04-28T02:55:49.984Z,2.30
2023-04-28T02:57:52.884Z,2.63
2023-04-28T02:59:55.641Z,2.70
2023-04-28T03:01:58.735Z,2.63
2023-04-28T03:04:03.159Z,2.90
2023-04-28T03:06:06.769Z,2.80
2023-04-28T03:08:09.560Z,2.70
2023-04-28T03:10:12.765Z,2.63
2023-04-28T03:12:15.534Z,2.90
2023-04-28T03:14:18.404Z,2.60
2023-04-28T03:16:21.577Z,2.47
2023-04-28T03:18:24.561Z,2.90
2023-04-28T03:20:28.625Z,2.77
2023-04-28T03:22:31.363Z,2.47
2023-04-28T03:24:34.516Z,2.63
2023-04-28T03:26:37.267Z,2.33
2023-04-28T03:28:40.008Z,2.90
2023-04-28T03:30:43.165Z,2.40
2023-04-28T03:32:45.937Z,2.70
2023-04-28T03:34:48.685Z,2.33
2023-04-28T03:36:52.724Z,2.50
2023-04-28T03:38:55.939Z,2.63
2023-04-28T03:40:58.692Z,2.63
2023-04-28T03:43:03.992Z,2.13
2023-04-28T03:45:08.266Z,2.60
2023-04-28T03:47:11.825Z,2.50
2023-04-28T03:49:14.602Z,2.50
2023-04-28T03:51:17.342Z,2.40
2023-04-28T03:53:21.355Z,2.40
2023-04-28T03:55:25.829Z,2.50
2023-04-28T03:57:28.579Z,2.63
2023-04-28T03:59:31.324Z,2.77
2023-04-28T04:01:34.065Z,2.60
2023-04-28T04:03:37.536Z,2.50
2023-04-28T04:05:41.506Z,2.43
2023-04-28T04:07:46.962Z,2.50
2023-04-28T04:09:51.489Z,2.53
2023-04-28T04:11:54.207Z,2.67
2023-04-28T04:13:56.943Z,2.50
2023-04-28T04:16:00.446Z,2.90
2023-04-28T04:18:03.202Z,2.50
2023-04-28T04:20:06.882Z,2.50
2023-04-28T04:22:10.040Z,2.33
2023-04-28T04:24:12.832Z,2.20
2023-04-28T04:26:16.916Z,2.00
2023-04-28T04:28:20.030Z,2.20
2023-04-28T04:30:22.916Z,2.43
2023-04-28T04:32:25.722Z,2.70
2023-04-28T04:34:28.901Z,2.33
2023-04-28T04:36:32.907Z,2.80
2023-04-28T04:38:59.718Z,2.40
2023-04-28T04:41:02.584Z,2.10
2023-04-28T04:43:07.149Z,2.50
2023-04-28T04:45:10.784Z,3.00
2023-04-28T04:47:13.495Z,2.43
2023-04-28T04:49:17.256Z,2.57
2023-04-28T04:51:19.948Z,2.37
2023-04-28T04:53:22.641Z,2.63
2023-04-28T04:55:26.024Z,2.27
2023-04-28T04:57:28.755Z,2.40
2023-04-28T04:59:32.800Z,2.80
2023-04-28T05:01:36.002Z,2.37
2023-04-28T05:03:39.354Z,2.50
2023-04-28T05:05:43.219Z,2.50
2023-04-28T05:07:47.389Z,2.87
2023-04-28T05:09:50.247Z,2.90
2023-04-28T05:11:53.860Z,2.50
2023-04-28T05:13:56.620Z,2.50
2023-04-28T05:16:00.805Z,2.73
2023-04-28T05:18:09.823Z,2.30
2023-04-28T05:20:18.824Z,2.80
2023-04-28T05:22:21.599Z,2.67
2023-04-28T05:24:24.795Z,2.40
2023-04-28T05:26:27.652Z,2.63
2023-04-28T05:28:33.261Z,3.00
2023-04-28T05:30:36.479Z,2.40
2023-04-28T05:32:40.546Z,2.70
2023-04-28T05:34:43.302Z,2.53
2023-04-28T05:36:48.289Z,2.83
2023-04-28T05:38:53.728Z,2.40
2023-04-28T05:40:56.548Z,3.00
2023-04-28T05:43:02.575Z,2.43
2023-04-28T05:45:05.895Z,2.43
2023-04-28T05:47:08.652Z,2.70
2023-04-28T05:49:13.351Z,3.10
2023-04-28T05:51:16.227Z,3.00
2023-04-28T05:53:19.032Z,2.87
2023-04-28T05:55:22.364Z,2.63
2023-04-28T05:57:25.286Z,2.80
2023-04-28T05:59:28.568Z,2.30
2023-04-28T06:01:31.915Z,2.80
2023-04-28T06:03:34.753Z,2.90
2023-04-28T06:05:43.176Z,3.00
2023-04-28T06:07:50.539Z,2.60
2023-04-28T06:09:59.278Z,2.27
2023-04-28T06:12:03.721Z,3.10
2023-04-28T06:14:06.850Z,2.67
2023-04-28T06:16:12.723Z,2.40
2023-04-28T06:18:16.362Z,2.70
2023-04-28T06:20:20.583Z,2.53
2023-04-28T06:22:24.716Z,3.03
2023-04-28T06:24:27.455Z,2.63
2023-04-28T06:26:30.905Z,2.20
2023-04-28T06:28:34.162Z,2.80
2023-04-28T06:30:37.005Z,2.90
2023-04-28T06:32:39.775Z,2.63
2023-04-28T06:34:43.285Z,3.07
2023-04-28T06:36:46.084Z,2.40
2023-04-28T06:38:50.158Z,2.77
2023-04-28T06:40:53.172Z,3.00
2023-04-28T06:42:57.360Z,2.43
2023-04-28T06:45:00.135Z,2.70
2023-04-28T06:47:02.982Z,3.03
2023-04-28T06:49:06.321Z,2.77
2023-04-28T06:51:09.083Z,2.70
2023-04-28T06:53:12.022Z,2.37
2023-04-28T06:55:17.754Z,2.60
2023-04-28T06:57:21.087Z,2.60
2023-04-28T06:59:23.925Z,2.60
2023-04-28T07:01:27.532Z,2.53
2023-04-28T07:05:34.750Z,2.60
2023-04-28T07:07:38.638Z,2.17
2023-04-28T07:09:41.410Z,2.43
2023-04-28T07:11:46.285Z,2.60
2023-04-28T07:13:51.581Z,2.23
2023-04-28T07:15:55.552Z,2.33
2023-04-28T07:17:58.488Z,2.70
2023-04-28T07:20:01.668Z,3.00
2023-04-28T07:22:04.412Z,2.73
2023-04-28T07:24:07.740Z,2.40
2023-04-28T07:26:12.593Z,2.40
2023-04-28T07:28:17.759Z,2.50
2023-04-28T07:30:27.956Z,2.40
2023-04-28T07:32:31.335Z,3.00
2023-04-28T07:34:35.004Z,2.70
2023-04-28T07:36:38.597Z,2.63
2023-04-28T07:38:41.338Z,2.57
2023-04-28T07:40:44.776Z,2.13
2023-04-28T07:42:48.621Z,3.07
2023-04-28T07:44:53.714Z,2.30
2023-04-28T07:47:01.113Z,2.63
2023-04-28T07:49:04.783Z,2.40
2023-04-28T07:51:08.020Z,2.30
2023-04-28T07:53:10.756Z,3.03
2023-04-28T07:55:13.513Z,2.60
2023-04-28T07:57:16.831Z,2.70
2023-04-28T07:59:20.885Z,2.60
2023-04-28T08:01:25.927Z,2.80
2023-04-28T08:03:31.416Z,2.97
2023-04-28T08:05:35.467Z,2.63
2023-04-28T08:07:38.919Z,2.60
2023-04-28T08:09:44.591Z,2.60
2023-04-28T08:11:54.190Z,2.20
2023-04-28T08:14:01.515Z,2.40
2023-04-28T08:16:06.358Z,2.53
2023-04-28T08:18:12.648Z,2.20
2023-04-28T08:20:21.087Z,2.40
2023-04-28T08:22:25.616Z,2.10
2023-04-28T08:24:30.296Z,2.00
2023-04-28T08:26:33.379Z,2.47
2023-04-28T08:28:37.549Z,2.30
2023-04-28T08:30:40.274Z,2.43
2023-04-28T08:32:43.497Z,2.80
2023-04-28T08:34:47.845Z,2.10
2023-04-28T08:36:50.634Z,2.27
2023-04-28T08:38:53.715Z,2.50
2023-04-28T08:41:05.050Z,2.40
2023-04-28T08:43:10.125Z,2.30
2023-04-28T08:45:14.539Z,2.40
2023-04-28T08:47:17.738Z,2.37
2023-04-28T08:49:20.487Z,2.27
2023-04-28T08:51:30.090Z,2.10
2023-04-28T08:55:36.760Z,2.27
2023-04-28T08:57:41.392Z,2.30
2023-04-28T08:59:44.671Z,2.73
2023-04-28T09:01:49.297Z,2.20
2023-04-28T09:03:52.208Z,2.27
2023-04-28T09:05:55.125Z,2.27
2023-04-28T09:07:59.184Z,2.20
2023-04-28T09:10:16.375Z,2.53
2023-04-28T09:12:19.404Z,2.30
2023-04-28T09:14:22.287Z,2.60
2023-04-28T09:16:25.393Z,2.40
2023-04-28T09:18:32.648Z,2.60
2023-04-28T09:20:36.001Z,2.67
2023-04-28T09:22:38.990Z,2.63
2023-04-28T09:24:44.194Z,2.57
2023-04-28T09:26:50.627Z,2.47
2023-04-28T09:28:57.278Z,2.50
2023-04-28T09:31:00.027Z,2.50
2023-04-28T09:33:05.726Z,2.70
2023-04-28T09:35:09.222Z,2.33
2023-04-28T09:37:16.040Z,2.43
2023-04-28T09:39:31.064Z,2.97
2023-04-28T09:41:39.738Z,2.63
2023-04-28T09:43:42.555Z,3.00
2023-04-28T09:45:45.991Z,2.63
2023-04-28T09:47:49.785Z,2.50
2023-04-28T09:49:56.939Z,2.30
2023-04-28T09:52:13.379Z,2.37
2023-04-28T09:54:16.630Z,2.60
2023-04-28T09:56:20.988Z,2.27
2023-04-28T09:58:25.710Z,2.40
2023-04-28T10:00:28.945Z,2.03
2023-04-28T10:02:43.235Z,2.70
2023-04-28T10:04:47.711Z,2.50
2023-04-28T10:06:50.934Z,2.20
2023-04-28T10:08:54.358Z,2.57
2023-04-28T10:10:57.784Z,3.00
2023-04-28T10:13:01.765Z,2.60
2023-04-28T10:15:07.071Z,2.70
2023-04-28T10:17:09.792Z,2.40
2023-04-28T10:19:12.947Z,2.80
2023-04-28T10:21:17.817Z,2.37
2023-04-28T10:23:40.945Z,2.73
2023-04-28T10:25:44.146Z,3.07
2023-04-28T10:27:56.186Z,2.83
2023-04-28T10:30:27.501Z,2.53
2023-04-28T10:32:33.393Z,2.53
2023-04-28T10:34:36.291Z,2.07
2023-04-28T10:36:48.651Z,2.80
2023-04-28T10:39:10.112Z,2.30
2023-04-28T10:41:34.149Z,2.60
2023-04-28T10:43:39.497Z,2.80
2023-04-28T10:46:02.825Z,2.60
2023-04-28T10:48:06.376Z,2.80
2023-04-28T10:50:09.849Z,2.67
2023-04-28T10:52:40.602Z,2.60
2023-04-28T10:54:43.381Z,2.43
2023-04-28T10:57:09.830Z,2.70
2023-04-28T10:59:26.544Z,2.43
2023-04-28T11:01:32.345Z,2.70
2023-04-28T11:03:43.398Z,2.60
2023-04-28T11:06:16.360Z,2.73
2023-04-28T11:08:34.354Z,2.30
2023-04-28T11:11:03.764Z,2.70
2023-04-28T11:13:28.104Z,2.70
2023-04-28T11:15:30.969Z,2.70
2023-04-28T11:17:40.689Z,2.60
2023-04-28T11:19:43.958Z,2.70
2023-04-28T11:21:46.902Z,3.03
2023-04-28T11:23:49.624Z,2.60
2023-04-28T11:25:55.401Z,2.77
2023-04-28T11:28:04.828Z,2.33
2023-04-28T11:30:22.224Z,2.30
2023-04-28T11:32:29.187Z,2.63
2023-04-28T11:34:33.706Z,3.37
2023-04-28T11:36:37.060Z,2.80
2023-04-28T11:38:46.949Z,2.57
2023-04-28T11:40:58.375Z,2.37
2023-04-28T11:43:01.926Z,2.67
2023-04-28T11:45:05.137Z,2.33
2023-04-28T11:47:08.228Z,2.77
2023-04-28T11:49:11.324Z,2.70
2023-04-28T11:51:32.357Z,2.37
2023-04-28T11:53:43.026Z,2.50
2023-04-28T11:55:45.801Z,2.70
2023-04-28T11:57:48.859Z,2.40
2023-04-28T11:59:51.702Z,2.50
2023-04-28T12:01:58.156Z,3.10
2023-04-28T12:04:01.238Z,2.40
2023-04-28T12:06:04.805Z,2.90
2023-04-28T12:08:08.818Z,2.80
2023-04-28T12:10:12.340Z,2.40
2023-04-28T12:12:17.407Z,2.87
2023-04-28T12:14:21.762Z,2.43
2023-04-28T12:16:43.155Z,2.60
2023-04-28T12:18:59.950Z,2.67
2023-04-28T12:21:02.742Z,2.90
2023-04-28T12:23:05.637Z,2.60
2023-04-28T12:25:11.110Z,2.70
2023-04-28T12:27:18.042Z,2.50
2023-04-28T12:29:36.699Z,2.60
2023-04-28T12:31:50.660Z,2.40
2023-04-28T12:33:53.529Z,2.80
2023-04-28T12:35:57.065Z,2.57
2023-04-28T12:38:00.410Z,2.23
2023-04-28T12:40:05.075Z,2.60
2023-04-28T12:42:09.259Z,2.50
2023-04-28T12:44:12.032Z,2.80
2023-04-28T12:46:15.797Z,2.33
2023-04-28T12:48:18.531Z,2.53
2023-04-28T12:50:21.712Z,2.40
2023-04-28T12:52:24.723Z,2.70
2023-04-28T12:54:28.427Z,2.90
2023-04-28T12:56:31.263Z,2.50
2023-04-28T12:58:35.703Z,2.40
2023-04-28T13:00:38.571Z,2.40
2023-04-28T13:02:41.532Z,2.47
2023-04-28T13:04:46.196Z,2.40
2023-04-28T13:06:49.103Z,2.40
2023-04-28T13:08:52.006Z,2.30
2023-04-28T13:10:55.233Z,2.60
2023-04-28T13:12:57.958Z,2.50
2023-04-28T13:15:02.833Z,2.20
2023-04-28T13:17:05.599Z,2.43
2023-04-28T13:19:10.794Z,2.77
2023-04-28T13:21:14.631Z,2.90
2023-04-28T13:23:17.596Z,2.30
2023-04-28T13:25:20.794Z,1.93
2023-04-28T13:27:23.663Z,2.47
2023-04-28T13:29:26.441Z,2.00
2023-04-28T13:31:30.897Z,1.93
2023-04-28T13:33:34.155Z,2.17
2023-04-28T13:35:39.794Z,2.10
2023-04-28T13:37:51.181Z,2.70
2023-04-28T13:39:54.301Z,2.53
2023-04-28T13:41:57.070Z,2.27
2023-04-28T13:43:59.901Z,1.87
2023-04-28T13:46:07.222Z,2.30
2023-04-28T13:48:12.138Z,2.47
2023-04-28T13:50:14.875Z,2.10
2023-04-28T13:52:18.829Z,2.10
2023-04-28T13:54:21.884Z,2.40
2023-04-28T13:56:25.288Z,2.60
2023-04-28T13:58:28.160Z,2.47
2023-04-28T14:00:34.232Z,2.10
2023-04-28T14:02:37.529Z,1.93
2023-04-28T14:04:48.514Z,2.53
2023-04-28T14:06:52.000Z,2.37
2023-04-28T14:08:57.744Z,2.30
2023-04-28T14:11:01.105Z,1.90
2023-04-28T14:13:07.166Z,2.20
2023-04-28T14:15:24.586Z,2.07
2023-04-28T14:17:28.380Z,2.30
2023-04-28T14:19:31.618Z,2.10
2023-04-28T14:21:35.930Z,2.37
2023-04-28T14:23:39.392Z,2.07
2023-04-28T14:25:42.912Z,2.20
2023-04-28T14:27:45.712Z,2.33
2023-04-28T14:29:49.180Z,2.13
2023-04-28T14:31:52.509Z,2.30
2023-04-28T14:33:55.330Z,1.97
2023-04-28T14:35:58.334Z,1.90
2023-04-28T14:38:02.928Z,2.00
2023-04-28T14:40:06.869Z,2.10
2023-04-28T14:42:09.614Z,2.00
2023-04-28T14:44:12.440Z,2.00
2023-04-28T14:46:17.534Z,2.23
2023-04-28T14:48:20.383Z,2.17
2023-04-28T14:50:23.240Z,2.30
2023-04-28T14:52:32.721Z,2.27
2023-04-28T14:54:39.298Z,2.13
2023-04-28T14:56:42.452Z,1.93
2023-04-28T14:58:45.283Z,1.93
2023-04-28T15:00:48.618Z,2.40
2023-04-28T15:02:51.638Z,2.40
2023-04-28T15:04:54.985Z,1.73
2023-04-28T15:06:59.373Z,2.00
2023-04-28T15:09:02.154Z,2.00
2023-04-28T15:11:06.348Z,2.03
2023-04-28T15:13:09.112Z,2.30
2023-04-28T15:15:12.818Z,2.00
2023-04-28T15:17:15.618Z,1.80
2023-04-28T15:19:19.361Z,1.80
2023-04-28T15:21:23.563Z,1.93
2023-04-28T15:23:38.256Z,1.93
2023-04-28T15:25:41.078Z,1.97
2023-04-28T15:27:45.142Z,1.70
2023-04-28T15:29:47.896Z,2.00
2023-04-28T15:31:51.073Z,1.80
2023-04-28T15:33:53.859Z,1.87
2023-04-28T15:35:57.122Z,2.00
2023-04-28T15:38:00.359Z,1.90
2023-04-28T15:40:03.652Z,2.10
2023-04-28T15:42:06.754Z,1.70
2023-04-28T15:44:11.675Z,1.80
2023-04-28T15:46:17.043Z,1.80
2023-04-28T15:48:20.297Z,1.77
2023-04-28T15:50:24.157Z,1.60
2023-04-28T15:52:27.891Z,1.70
2023-04-28T15:54:30.654Z,1.70
2023-04-28T15:56:33.872Z,1.53
2023-04-28T15:58:36.627Z,1.90
2023-04-28T16:00:42.173Z,1.50
2023-04-28T16:02:47.832Z,1.83
2023-04-28T16:04:53.727Z,1.73
2023-04-28T16:07:09.985Z,2.00
2023-04-28T16:09:12.996Z,1.53
2023-04-28T16:11:19.706Z,1.90
2023-04-28T16:13:22.833Z,1.60
2023-04-28T16:15:26.042Z,1.47
2023-04-28T16:17:31.182Z,1.70
2023-04-28T16:19:39.779Z,1.60
2023-04-28T16:21:54.557Z,1.57
2023-04-28T16:23:57.853Z,1.67
2023-04-28T16:26:00.599Z,1.70
2023-04-28T16:28:03.735Z,1.90
2023-04-28T16:30:08.825Z,1.60
2023-04-28T16:32:11.865Z,1.23
2023-04-28T16:34:17.106Z,1.53
2023-04-28T16:36:21.350Z,1.60
2023-04-28T16:38:26.615Z,1.70
2023-04-28T16:40:29.802Z,1.90
2023-04-28T16:42:32.533Z,1.47
2023-04-28T16:44:35.977Z,1.30
2023-04-28T16:46:38.997Z,1.30
2023-04-28T16:48:42.022Z,1.60
2023-04-28T16:50:46.663Z,1.70
2023-04-28T16:52:50.364Z,1.30
2023-04-28T16:55:01.858Z,1.40
2023-04-28T16:57:05.101Z,1.50
2023-04-28T16:59:07.876Z,1.67
2023-04-28T17:01:10.645Z,1.53
2023-04-28T17:03:13.967Z,1.63
2023-04-28T17:05:17.694Z,2.10
2023-04-28T17:07:22.953Z,1.67
2023-04-28T17:09:28.805Z,1.43
2023-04-28T17:11:31.692Z,1.30
2023-04-28T17:13:35.278Z,2.00
2023-04-28T17:15:38.748Z,1.60
2023-04-28T17:17:41.924Z,1.60
2023-04-28T17:19:44.854Z,2.03
2023-04-28T17:21:50.074Z,1.70
2023-04-28T17:23:54.474Z,2.00
2023-04-28T17:25:57.236Z,2.20
2023-04-28T17:28:12.341Z,2.13
2023-04-28T17:30:15.395Z,2.20
2023-04-28T17:32:18.323Z,2.70
2023-04-28T17:34:21.326Z,2.07
2023-04-28T17:36:26.179Z,2.27
2023-04-28T17:38:35.944Z,2.57
2023-04-28T17:40:40.042Z,2.30
2023-04-28T17:42:46.348Z,2.40
2023-04-28T17:44:49.313Z,2.20
2023-04-28T17:46:52.680Z,2.23
2023-04-28T17:48:55.976Z,2.30
2023-04-28T17:50:58.726Z,2.43
2023-04-28T17:53:01.533Z,2.07
2023-04-28T17:55:04.397Z,2.40
2023-04-28T17:57:08.460Z,2.30
2023-04-28T17:59:11.559Z,2.83
2023-04-28T18:01:14.629Z,2.90
2023-04-28T18:03:17.515Z,3.07
2023-04-28T18:05:20.507Z,2.57
2023-04-28T18:07:23.265Z,2.50
2023-04-28T18:09:27.127Z,2.83
2023-04-28T18:11:29.882Z,2.57
2023-04-28T18:13:34.732Z,2.50
2023-04-28T18:15:37.508Z,2.43
2023-04-28T18:17:40.310Z,2.80
2023-04-28T18:19:43.123Z,2.60
2023-04-28T18:21:46.305Z,2.20
2023-04-28T18:23:49.049Z,2.70
2023-04-28T18:25:51.852Z,2.23
2023-04-28T18:27:54.968Z,2.13
2023-04-28T18:29:59.121Z,2.40
2023-04-28T18:32:01.934Z,2.20
2023-04-28T18:34:05.350Z,2.20
2023-04-28T18:36:08.182Z,2.60
2023-04-28T18:38:10.899Z,2.13
2023-04-28T18:40:14.005Z,2.33
2023-04-28T18:42:16.871Z,2.20
2023-04-28T18:44:19.743Z,2.10
2023-04-28T18:46:24.237Z,2.40
2023-04-28T18:48:27.035Z,2.40
2023-04-28T18:50:30.160Z,2.17
2023-04-28T18:52:33.158Z,2.60
2023-04-28T18:54:35.993Z,1.90
2023-04-28T18:56:38.832Z,2.40
2023-04-28T18:58:41.700Z,2.20
2023-04-28T19:00:45.801Z,2.13
2023-04-28T19:02:50.130Z,2.50
2023-04-28T19:04:53.240Z,2.40
2023-04-28T19:06:56.201Z,2.50
2023-04-28T19:08:59.473Z,2.20
2023-04-28T19:11:03.245Z,2.60
2023-04-28T19:13:06.078Z,2.37
2023-04-28T19:15:09.510Z,2.20
2023-04-28T19:17:12.283Z,3.23
2023-04-28T19:19:16.398Z,2.03
2023-04-28T19:21:19.161Z,2.63
2023-04-28T19:23:22.455Z,2.20
2023-04-28T19:25:29.590Z,2.07
2023-04-28T19:27:33.007Z,2.40
2023-04-28T19:29:35.817Z,2.33
2023-04-28T19:31:38.614Z,2.00
2023-04-28T19:33:41.347Z,2.30
2023-04-28T19:35:45.792Z,2.20
2023-04-28T19:37:52.077Z,2.10
2023-04-28T19:39:55.129Z,2.23
2023-04-28T19:41:58.618Z,1.90
2023-04-28T19:44:01.883Z,1.93
2023-04-28T19:46:05.000Z,2.20
2023-04-28T19:48:08.084Z,2.20
2023-04-28T19:50:11.748Z,2.67
2023-04-28T19:52:15.819Z,2.20
2023-04-28T19:54:19.092Z,2.03
2023-04-28T19:56:22.223Z,2.20
2023-04-28T19:58:24.949Z,2.10
2023-04-28T20:00:28.832Z,1.90
2023-04-28T20:02:33.767Z,2.30
2023-04-28T20:04:49.019Z,1.83
2023-04-28T20:06:54.944Z,2.40
2023-04-28T20:08:59.272Z,2.07
2023-04-28T20:11:02.716Z,2.10
2023-04-28T20:13:06.994Z,2.13
2023-04-28T20:15:11.080Z,2.30
2023-04-28T20:17:19.796Z,2.43
2023-04-28T20:19:26.172Z,2.20
2023-04-28T20:21:29.354Z,2.30
2023-04-28T20:23:32.398Z,2.23
2023-04-28T20:25:37.867Z,1.97
2023-04-28T20:27:41.139Z,2.30
2023-04-28T20:29:43.894Z,1.90
2023-04-28T20:31:46.834Z,2.27
2023-04-28T20:33:50.254Z,2.20
2023-04-28T20:35:55.831Z,2.20
2023-04-28T20:37:58.792Z,2.50
2023-04-28T20:40:01.568Z,2.30
2023-04-28T20:42:05.783Z,1.90
2023-04-28T20:44:08.558Z,2.20
2023-04-28T20:46:13.537Z,2.23
2023-04-28T20:48:17.184Z,2.10
2023-04-28T20:50:19.994Z,2.27
2023-04-28T20:52:23.183Z,1.90
2023-04-28T20:54:25.946Z,2.03
2023-04-28T20:56:28.752Z,2.00
2023-04-28T20:58:32.865Z,2.03
2023-04-28T21:00:39.943Z,2.33
2023-04-28T21:02:43.026Z,1.80
2023-04-28T21:04:46.124Z,1.93
2023-04-28T21:06:51.739Z,2.37
2023-04-28T21:08:55.019Z,2.20
2023-04-28T21:10:57.771Z,2.20
2023-04-28T21:13:00.517Z,2.37
2023-04-28T21:15:04.926Z,1.87
2023-04-28T21:17:07.714Z,1.80
2023-04-28T21:19:10.831Z,2.00
2023-04-28T21:21:14.231Z,1.90
2023-04-28T21:23:17.147Z,1.93
2023-04-28T21:25:20.321Z,1.97
2023-04-28T21:27:23.379Z,2.20
2023-04-28T21:29:29.562Z,1.93
2023-04-28T21:31:34.042Z,2.20
2023-04-28T21:33:36.841Z,2.27
2023-04-28T21:35:39.609Z,2.20
2023-04-28T21:37:42.956Z,2.00
2023-04-28T21:39:52.008Z,2.10
2023-04-28T21:41:55.546Z,2.17
2023-04-28T21:43:59.479Z,2.00
2023-04-28T21:46:02.293Z,2.03
2023-04-28T21:48:08.413Z,1.93
2023-04-28T21:50:11.785Z,2.40
2023-04-28T21:52:15.818Z,2.13
2023-04-28T21:54:18.676Z,1.80
2023-04-28T21:56:21.934Z,2.10
2023-04-28T21:58:25.789Z,2.20
2023-04-28T22:00:30.281Z,2.00
2023-04-28T22:02:33.597Z,2.10
2023-04-28T22:04:39.603Z,2.40
2023-04-28T22:06:44.846Z,2.10
2023-04-28T22:08:47.971Z,1.90
2023-04-28T22:10:51.576Z,1.80
2023-04-28T22:12:54.314Z,2.17
2023-04-28T22:14:57.404Z,2.13
2023-04-28T22:17:00.420Z,2.40
2023-04-28T22:19:03.719Z,2.20
2023-04-28T22:21:07.990Z,1.90
2023-04-28T22:23:11.136Z,2.17
2023-04-28T22:25:14.297Z,1.80
2023-04-28T22:27:17.613Z,2.00
2023-04-28T22:29:20.790Z,2.40
2023-04-28T22:31:24.946Z,2.07
2023-04-28T22:33:27.954Z,2.17
2023-04-28T22:35:30.695Z,2.30
2023-04-28T22:37:35.449Z,2.20
2023-04-28T22:39:38.332Z,2.10
2023-04-28T22:41:41.482Z,2.10
2023-04-28T22:43:45.908Z,2.10
2023-04-28T22:45:48.752Z,2.53
2023-04-28T22:47:51.682Z,1.90
2023-04-28T22:49:55.046Z,2.43
2023-04-28T22:51:58.706Z,2.33
2023-04-28T22:54:02.892Z,2.10
2023-04-28T22:56:08.283Z,2.20
2023-04-28T22:58:11.417Z,1.90
2023-04-28T23:00:16.131Z,1.93
2023-04-28T23:02:19.368Z,2.17
2023-04-28T23:04:23.724Z,1.90
2023-04-28T23:06:28.811Z,2.00
2023-04-28T23:08:31.624Z,2.23
2023-04-28T23:10:36.147Z,2.37
2023-04-28T23:12:38.901Z,2.43
2023-04-28T23:14:41.675Z,1.87
2023-04-28T23:16:44.458Z,2.10
2023-04-28T23:18:47.592Z,1.87
2023-04-28T23:20:50.357Z,2.00
2023-04-28T23:22:56.676Z,1.90
2023-04-28T23:24:59.499Z,1.97
2023-04-28T23:27:03.857Z,1.73
2023-04-28T23:29:06.606Z,1.90
2023-04-28T23:31:09.678Z,2.07
2023-04-28T23:33:12.583Z,2.10
2023-04-28T23:35:15.644Z,1.90
2023-04-28T23:37:18.410Z,1.90
2023-04-28T23:39:21.590Z,2.20
2023-04-28T23:41:24.493Z,1.80
2023-04-28T23:43:28.665Z,2.00
2023-04-28T23:45:31.451Z,1.73
2023-04-28T23:47:34.609Z,1.77
2023-04-28T23:49:37.420Z,1.80
2023-04-28T23:51:41.058Z,2.00
2023-04-28T23:53:43.835Z,2.10
2023-04-28T23:55:47.067Z,2.10
2023-04-28T23:57:49.868Z,1.90
2023-04-28T23:59:54.754Z,2.10
